Time;durP1;ratioP1;P1;durP2;ratioP2;P2;SDS_P1;SDS_P2;PMS_P1;PMS_P2;Temp;Humidity;BMP_temperature;BMP_pressure;BME280_temperature;BME280_humidity;BME280_pressure;Samples;Min_cycle;Max_cycle;Signal;HPM_P1;HPM_P2
2023/03/21 00:00:39;;;;;;;23.17;4.43;;;10.50;99.90;;;;;;5012166;28;20053;-58
2023/03/21 00:03:06;;;;;;;14.40;3.65;;;10.50;99.90;;;;;;5019917;28;20507;-58
2023/03/21 00:05:33;;;;;;;16.85;3.92;;;10.50;99.90;;;;;;5014035;28;20045;-59
2023/03/21 00:08:00;;;;;;;20.10;6.40;;;10.50;99.90;;;;;;5016792;28;20034;-59
2023/03/21 00:10:28;;;;;;;17.08;4.68;;;10.50;99.90;;;;;;5021863;28;20041;-56
2023/03/21 00:13:06;;;;;;;18.75;4.35;;;10.60;99.90;;;;;;5019150;28;20042;-59
2023/03/21 00:15:33;;;;;;;12.10;4.03;;;10.60;99.90;;;;;;5024996;28;20045;-56
2023/03/21 00:18:24;;;;;;;11.77;4.03;;;10.50;99.90;;;;;;5024023;28;20432;-58
2023/03/21 00:21:02;;;;;;;16.77;3.90;;;10.60;99.90;;;;;;5023660;28;20136;-59
2023/03/21 00:23:48;;;;;;;15.48;4.45;;;10.60;99.90;;;;;;5020062;28;20092;-56
2023/03/21 00:26:16;;;;;;;18.95;5.22;;;10.60;99.90;;;;;;4993490;28;20132;-57
2023/03/21 00:28:42;;;;;;;17.92;4.28;;;10.50;99.90;;;;;;5018469;28;20069;-58
2023/03/21 00:31:09;;;;;;;27.60;6.38;;;10.60;99.90;;;;;;4994039;28;20073;-60
2023/03/21 00:33:38;;;;;;;22.02;4.38;;;10.50;99.90;;;;;;4998242;28;20492;-55
2023/03/21 00:36:06;;;;;;;13.23;3.75;;;10.50;99.90;;;;;;5025489;28;20091;-59
2023/03/21 00:38:33;;;;;;;11.18;3.53;;;10.60;99.90;;;;;;5005649;28;20045;-60
2023/03/21 00:41:06;;;;;;;13.98;4.22;;;10.60;99.90;;;;;;5009704;28;20080;-58
2023/03/21 00:43:50;;;;;;;17.33;4.15;;;10.60;99.90;;;;;;5013420;28;20049;-58
2023/03/21 00:46:17;;;;;;;20.35;4.82;;;10.60;99.90;;;;;;5025150;28;20045;-59
2023/03/21 00:48:45;;;;;;;21.17;4.38;;;10.60;99.90;;;;;;5023431;28;20045;-60
2023/03/21 00:51:24;;;;;;;15.93;4.03;;;10.60;99.90;;;;;;5010970;28;20124;-59
2023/03/21 00:53:55;;;;;;;8.95;3.95;;;10.60;99.90;;;;;;4995975;28;20054;-57
2023/03/21 00:56:22;;;;;;;14.57;4.00;;;10.50;99.90;;;;;;5026130;28;20049;-59
2023/03/21 00:58:50;;;;;;;15.85;3.85;;;10.50;99.90;;;;;;5013962;28;20048;-58
2023/03/21 01:01:16;;;;;;;18.60;4.03;;;10.50;99.90;;;;;;5023884;28;20049;-57
2023/03/21 01:03:46;;;;;;;19.27;4.35;;;10.50;99.90;;;;;;5014237;28;20127;-58
2023/03/21 01:06:18;;;;;;;10.00;4.45;;;10.50;99.90;;;;;;5020396;28;20124;-58
2023/03/21 01:08:46;;;;;;;20.05;4.35;;;10.50;99.90;;;;;;5020518;28;20516;-57
2023/03/21 01:11:24;;;;;;;19.77;4.97;;;10.50;99.90;;;;;;4997068;28;20056;-58
2023/03/21 01:13:51;;;;;;;17.80;4.18;;;10.50;99.90;;;;;;5003682;28;20081;-58
2023/03/21 01:16:30;;;;;;;21.98;6.80;;;10.50;99.90;;;;;;5013531;28;20103;-59
2023/03/21 01:18:57;;;;;;;16.48;4.97;;;10.40;99.90;;;;;;5014897;28;20485;-57
2023/03/21 01:21:23;;;;;;;20.65;5.00;;;10.50;99.90;;;;;;5020864;28;20049;-59
2023/03/21 01:23:50;;;;;;;18.02;4.78;;;10.50;99.90;;;;;;5016719;28;20041;-60
2023/03/21 01:26:17;;;;;;;18.67;5.07;;;10.50;99.90;;;;;;5018621;28;20058;-57
2023/03/21 01:28:44;;;;;;;17.48;4.50;;;10.50;99.90;;;;;;5020986;28;20050;-59
2023/03/21 01:31:12;;;;;;;15.85;5.05;;;10.50;99.90;;;;;;5019241;28;20493;-58
2023/03/21 01:33:39;;;;;;;16.77;4.70;;;10.40;99.90;;;;;;4668259;28;10000156;-59
2023/03/21 01:36:07;;;;;;;16.77;4.18;;;10.50;99.90;;;;;;5016520;28;20046;-60
2023/03/21 01:38:40;;;;;;;18.00;5.00;;;10.40;99.90;;;;;;5013077;28;20128;-59
2023/03/21 01:41:08;;;;;;;17.67;6.05;;;10.40;99.90;;;;;;5003030;28;20048;-59
2023/03/21 01:43:46;;;;;;;18.20;6.63;;;10.40;99.90;;;;;;5011450;28;20049;-60
2023/03/21 01:46:43;;;;;;;12.30;4.38;;;10.50;99.90;;;;;;5015534;28;20052;-59
2023/03/21 01:49:33;;;;;;;15.23;3.97;;;10.50;99.90;;;;;;5002252;28;20046;-58
2023/03/21 01:52:03;;;;;;;15.43;6.07;;;10.50;99.90;;;;;;5003764;28;20125;-59
2023/03/21 01:54:41;;;;;;;16.17;6.22;;;10.50;99.90;;;;;;5002950;28;20045;-59
2023/03/21 01:57:11;;;;;;;19.95;5.57;;;10.50;99.90;;;;;;5003062;28;20132;-58
2023/03/21 01:59:40;;;;;;;16.23;4.75;;;10.40;99.90;;;;;;5008072;28;20055;-59
2023/03/21 02:02:11;;;;;;;22.38;6.38;;;10.50;99.90;;;;;;5005541;28;20081;-59
2023/03/21 02:04:38;;;;;;;19.77;4.70;;;10.40;99.90;;;;;;4998684;28;20049;-57
2023/03/21 02:07:08;;;;;;;13.05;4.38;;;10.40;99.90;;;;;;5021267;28;20408;-57
2023/03/21 02:09:36;;;;;;;17.98;4.35;;;10.40;99.90;;;;;;4984606;28;20050;-57
2023/03/21 02:12:02;;;;;;;16.67;5.03;;;10.30;99.90;;;;;;5020709;28;20045;-57
2023/03/21 02:14:30;;;;;;;17.15;5.45;;;10.30;99.90;;;;;;5012620;28;20552;-59
2023/03/21 02:17:08;;;;;;;11.63;4.82;;;10.30;99.90;;;;;;4992930;28;20480;-60
2023/03/21 02:20:00;;;;;;;13.25;4.40;;;10.30;99.90;;;;;;5015808;28;20060;-58
2023/03/21 02:22:31;;;;;;;17.20;5.22;;;10.30;99.90;;;;;;5020020;28;20137;-60
2023/03/21 02:25:19;;;;;;;15.45;4.85;;;10.30;99.90;;;;;;5022275;28;20045;-59
2023/03/21 02:27:58;;;;;;;17.52;5.30;;;10.30;99.90;;;;;;5020050;28;20510;-58
2023/03/21 02:30:44;;;;;;;19.98;5.40;;;10.20;99.90;;;;;;5006242;28;20431;-58
2023/03/21 02:33:17;;;;;;;17.38;5.05;;;10.30;99.90;;;;;;5006296;28;20046;-59
2023/03/21 02:36:12;;;;;;;18.70;5.30;;;10.30;99.90;;;;;;5015356;28;20047;-59
2023/03/21 02:38:51;;;;;;;16.92;4.95;;;10.20;99.90;;;;;;5018453;28;20104;-58
2023/03/21 02:41:33;;;;;;;19.48;6.18;;;10.20;99.90;;;;;;5000642;28;20052;-60
2023/03/21 02:44:30;;;;;;;15.50;4.80;;;10.20;99.90;;;;;;5006558;28;20045;-58
2023/03/21 02:47:00;;;;;;;17.23;5.72;;;10.20;99.90;;;;;;5000204;28;20057;-59
2023/03/21 02:49:43;;;;;;;13.65;5.85;;;10.10;99.90;;;;;;5007165;28;20054;-60
2023/03/21 02:52:19;;;;;;;12.50;4.70;;;10.10;99.90;;;;;;5004759;28;20048;-58
2023/03/21 02:55:04;;;;;;;18.02;4.88;;;10.10;99.90;;;;;;4997675;28;20579;-58
2023/03/21 02:57:31;;;;;;;24.00;5.05;;;10.10;99.90;;;;;;4999076;28;20072;-59
2023/03/21 03:00:11;;;;;;;12.38;4.82;;;10.10;99.90;;;;;;5010212;28;20053;-59
2023/03/21 03:02:42;;;;;;;17.60;3.58;;;10.10;99.90;;;;;;5005266;28;20084;-59
2023/03/21 03:05:16;;;;;;;15.30;4.75;;;10.10;99.90;;;;;;5015062;28;20056;-59
2023/03/21 03:07:56;;;;;;;11.85;4.72;;;10.10;99.90;;;;;;5023103;28;20048;-58
2023/03/21 03:10:38;;;;;;;13.45;4.80;;;10.10;99.90;;;;;;5029457;28;20542;-59
2023/03/21 03:13:08;;;;;;;10.75;4.40;;;10.10;99.90;;;;;;5014838;28;20142;-58
2023/03/21 03:16:12;;;;;;;18.33;4.10;;;10.10;99.90;;;;;;5025920;28;20041;-58
2023/03/21 03:18:55;;;;;;;14.40;5.10;;;10.10;99.90;;;;;;5000767;28;20042;-58
2023/03/21 03:21:27;;;;;;;21.85;5.80;;;10.10;99.90;;;;;;5012129;28;20398;-59
2023/03/21 03:24:27;;;;;;;26.73;4.38;;;10.00;99.90;;;;;;4998282;28;20052;-57
2023/03/21 03:27:03;;;;;;;14.52;4.32;;;10.00;99.90;;;;;;4994072;28;20464;-56
2023/03/21 03:29:30;;;;;;;12.80;3.55;;;10.00;99.90;;;;;;4989358;28;20451;-58
2023/03/21 03:32:15;;;;;;;13.98;4.03;;;10.00;99.90;;;;;;4994862;28;20056;-57
2023/03/21 03:34:44;;;;;;;18.25;4.03;;;10.00;99.90;;;;;;5021942;28;20060;-58
2023/03/21 03:37:13;;;;;;;17.67;3.78;;;10.00;99.90;;;;;;4994753;28;20045;-57
2023/03/21 03:39:46;;;;;;;12.23;3.88;;;10.00;99.90;;;;;;4999228;28;20048;-58
2023/03/21 03:42:23;;;;;;;17.00;3.70;;;10.00;99.90;;;;;;4996578;28;20045;-58
2023/03/21 03:44:54;;;;;;;13.25;3.88;;;9.90;99.90;;;;;;5005696;28;20471;-58
2023/03/21 03:47:46;;;;;;;16.67;3.53;;;9.90;99.90;;;;;;5011676;28;20121;-58
2023/03/21 03:50:27;;;;;;;11.02;2.63;;;9.90;99.90;;;;;;5002370;28;20056;-58
2023/03/21 03:53:07;;;;;;;13.90;3.22;;;9.90;99.90;;;;;;5008825;28;20113;-58
2023/03/21 03:55:44;;;;;;;12.65;3.03;;;9.90;99.90;;;;;;4990165;28;20210;-59
2023/03/21 03:58:11;;;;;;;14.35;3.00;;;9.90;99.90;;;;;;4991654;28;20041;-59
2023/03/21 04:00:49;;;;;;;15.73;3.50;;;9.90;99.90;;;;;;4987452;28;20060;-57
2023/03/21 04:03:15;;;;;;;15.93;3.03;;;9.90;99.90;;;;;;5007152;28;20424;-58
2023/03/21 04:05:45;;;;;;;23.55;4.55;;;9.80;99.90;;;;;;5025590;28;20052;-58
2023/03/21 04:08:13;;;;;;;17.52;3.33;;;9.80;99.90;;;;;;5026068;28;20072;-56
2023/03/21 04:10:40;;;;;;;13.73;3.45;;;9.80;99.90;;;;;;5022648;28;20045;-57
2023/03/21 04:13:07;;;;;;;17.55;3.50;;;9.80;99.90;;;;;;5011708;28;20046;-58
2023/03/21 04:15:34;;;;;;;11.77;3.33;;;9.90;99.90;;;;;;5013921;28;20054;-58
2023/03/21 04:18:01;;;;;;;19.42;2.78;;;9.90;99.90;;;;;;5026454;28;20061;-60
2023/03/21 04:20:28;;;;;;;16.48;3.30;;;9.80;99.90;;;;;;5022010;28;20519;-58
2023/03/21 04:23:03;;;;;;;15.63;3.47;;;9.90;99.90;;;;;;5012231;28;20053;-58
2023/03/21 04:25:31;;;;;;;14.00;2.55;;;9.80;99.90;;;;;;5014614;28;20050;-58
2023/03/21 04:28:00;;;;;;;23.38;5.13;;;9.90;99.90;;;;;;5024094;28;20484;-58
2023/03/21 04:30:27;;;;;;;15.60;3.50;;;9.90;99.90;;;;;;5020686;28;20091;-59
2023/03/21 04:32:55;;;;;;;11.13;3.08;;;9.80;99.90;;;;;;5015403;28;20048;-59
2023/03/21 04:35:23;;;;;;;15.18;3.28;;;9.80;99.90;;;;;;5015911;28;20395;-58
2023/03/21 04:37:50;;;;;;;18.67;3.00;;;9.80;99.90;;;;;;5002951;28;20108;-58
2023/03/21 04:40:17;;;;;;;16.58;3.22;;;9.80;99.90;;;;;;5019540;28;20053;-58
2023/03/21 04:42:45;;;;;;;25.45;3.22;;;9.80;99.90;;;;;;5013656;28;20050;-58
2023/03/21 04:45:13;;;;;;;22.35;3.75;;;9.80;99.90;;;;;;5014303;28;20053;-58
2023/03/21 04:47:40;;;;;;;17.95;2.70;;;9.70;99.90;;;;;;4999756;28;20515;-58
2023/03/21 04:50:08;;;;;;;12.52;2.45;;;9.70;99.90;;;;;;5023803;28;20071;-58
2023/03/21 04:52:35;;;;;;;12.85;3.10;;;9.70;99.90;;;;;;5019534;28;20042;-58
2023/03/21 04:55:02;;;;;;;8.00;2.53;;;9.60;99.90;;;;;;5014978;28;20049;-58
2023/03/21 04:57:28;;;;;;;12.20;2.72;;;9.60;99.90;;;;;;5020501;28;20048;-58
2023/03/21 04:59:55;;;;;;;13.95;2.72;;;9.60;99.90;;;;;;5010868;28;20455;-58
2023/03/21 05:02:22;;;;;;;19.95;3.88;;;9.60;99.90;;;;;;5013890;28;20053;-57
2023/03/21 05:04:49;;;;;;;11.32;2.22;;;9.70;99.90;;;;;;5024431;28;20042;-57
2023/03/21 05:07:15;;;;;;;10.23;2.15;;;9.60;99.90;;;;;;5013189;28;20053;-57
2023/03/21 05:09:42;;;;;;;16.45;3.35;;;9.60;99.90;;;;;;5024968;28;20080;-57
2023/03/21 05:12:09;;;;;;;11.50;2.85;;;9.60;99.90;;;;;;4987344;28;20057;-57
2023/03/21 05:14:36;;;;;;;19.75;4.25;;;9.60;99.90;;;;;;5009596;28;20132;-60
2023/03/21 05:17:03;;;;;;;11.23;2.10;;;9.70;99.90;;;;;;5020559;28;20630;-60
2023/03/21 05:19:34;;;;;;;12.77;2.22;;;9.70;99.90;;;;;;5013902;28;20545;-58
2023/03/21 05:22:06;;;;;;;11.75;2.45;;;9.60;99.90;;;;;;5015185;28;20046;-58
2023/03/21 05:24:33;;;;;;;20.63;3.03;;;9.60;99.90;;;;;;5021538;28;20045;-58
2023/03/21 05:27:01;;;;;;;15.77;2.65;;;9.60;99.90;;;;;;5002053;28;20046;-57
2023/03/21 05:29:29;;;;;;;19.38;3.63;;;9.60;99.90;;;;;;5027844;28;20050;-58
2023/03/21 05:31:56;;;;;;;12.50;2.30;;;9.60;99.90;;;;;;5005920;28;20052;-57
2023/03/21 05:34:23;;;;;;;17.17;2.72;;;9.50;99.90;;;;;;5016864;28;20057;-58
2023/03/21 05:36:50;;;;;;;11.73;3.13;;;9.40;99.90;;;;;;5022116;28;20046;-59
2023/03/21 05:39:17;;;;;;;18.38;3.78;;;9.40;99.90;;;;;;5001507;28;20117;-58
2023/03/21 05:41:43;;;;;;;16.38;2.28;;;9.30;99.90;;;;;;5011627;28;20069;-57
2023/03/21 05:44:10;;;;;;;9.48;2.35;;;9.30;99.90;;;;;;5018705;28;20046;-58
2023/03/21 05:46:37;;;;;;;14.55;3.08;;;9.30;99.90;;;;;;5010375;28;20056;-58
2023/03/21 05:49:04;;;;;;;8.48;1.80;;;9.30;99.90;;;;;;4997172;28;20046;-58
2023/03/21 05:51:30;;;;;;;13.05;3.28;;;9.30;99.90;;;;;;5024662;28;20067;-57
2023/03/21 05:53:57;;;;;;;19.50;3.40;;;9.20;99.90;;;;;;5022570;28;20128;-58
2023/03/21 05:56:24;;;;;;;12.55;2.10;;;9.30;99.90;;;;;;5009337;28;20049;-58
2023/03/21 05:58:51;;;;;;;15.63;4.00;;;9.30;99.90;;;;;;5015988;28;20057;-57
2023/03/21 06:01:18;;;;;;;12.10;2.08;;;9.30;99.90;;;;;;5011311;28;20054;-57
2023/03/21 06:03:44;;;;;;;9.60;2.17;;;9.30;99.90;;;;;;5013598;28;20045;-59
2023/03/21 06:06:11;;;;;;;7.75;1.75;;;9.30;99.90;;;;;;5023001;28;20639;-58
2023/03/21 06:08:38;;;;;;;10.43;2.38;;;9.30;99.90;;;;;;5019599;28;20083;-57
2023/03/21 06:11:06;;;;;;;11.52;2.40;;;9.30;99.90;;;;;;5014523;28;20137;-59
2023/03/21 06:13:32;;;;;;;15.70;2.75;;;9.30;99.90;;;;;;4997452;28;20539;-57
2023/03/21 06:16:00;;;;;;;11.40;2.58;;;9.30;99.90;;;;;;5018023;28;20061;-58
2023/03/21 06:18:27;;;;;;;11.88;2.30;;;9.30;99.90;;;;;;5019806;28;20050;-58
2023/03/21 06:20:56;;;;;;;18.05;2.80;;;9.30;99.90;;;;;;5018630;28;20480;-58
2023/03/21 06:23:23;;;;;;;10.15;3.50;;;9.30;99.90;;;;;;5012455;28;20065;-58
2023/03/21 06:25:49;;;;;;;16.67;2.58;;;9.40;99.90;;;;;;5018399;28;20079;-65
2023/03/21 06:28:16;;;;;;;14.27;2.08;;;9.30;99.90;;;;;;5025161;28;20042;-59
2023/03/21 06:30:44;;;;;;;8.27;1.85;;;9.40;99.90;;;;;;5018095;28;20046;-59
2023/03/21 06:33:11;;;;;;;13.40;2.20;;;9.40;99.90;;;;;;5015968;28;20489;-60
2023/03/21 06:35:38;;;;;;;6.97;2.50;;;9.50;99.90;;;;;;5020276;28;20072;-58
2023/03/21 06:38:06;;;;;;;8.30;2.65;;;9.50;99.90;;;;;;5030086;28;20041;-58
2023/03/21 06:40:32;;;;;;;12.50;2.90;;;9.50;99.90;;;;;;5027879;28;20072;-59
2023/03/21 06:42:59;;;;;;;10.23;2.08;;;9.50;99.90;;;;;;5022319;28;20077;-58
2023/03/21 06:45:26;;;;;;;9.75;2.20;;;9.50;99.90;;;;;;5022064;28;20057;-58
2023/03/21 06:47:53;;;;;;;11.43;2.22;;;9.50;99.90;;;;;;5025278;28;20482;-59
2023/03/21 06:50:20;;;;;;;12.57;2.78;;;9.50;99.90;;;;;;5023846;28;20041;-58
2023/03/21 06:52:47;;;;;;;11.80;2.28;;;9.50;99.90;;;;;;5015273;28;20104;-57
2023/03/21 06:55:14;;;;;;;6.70;1.92;;;9.50;99.90;;;;;;4999926;28;20052;-59
2023/03/21 06:57:40;;;;;;;6.55;1.73;;;9.60;99.90;;;;;;5023781;28;20064;-59
2023/03/21 07:00:08;;;;;;;9.52;2.17;;;9.50;99.90;;;;;;5022357;28;20100;-59
2023/03/21 07:02:35;;;;;;;8.25;2.53;;;9.60;99.90;;;;;;5030308;28;20049;-58
2023/03/21 07:05:02;;;;;;;8.23;2.35;;;9.60;99.90;;;;;;5021366;28;20447;-60
2023/03/21 07:07:30;;;;;;;15.73;4.50;;;9.60;99.90;;;;;;5001822;28;20048;-58
2023/03/21 07:09:59;;;;;;;13.85;2.70;;;9.60;99.90;;;;;;5008497;28;20045;-56
2023/03/21 07:12:26;;;;;;;10.40;2.30;;;9.60;99.90;;;;;;5019064;28;20045;-58
2023/03/21 07:14:53;;;;;;;10.88;2.40;;;9.70;99.90;;;;;;5020079;28;20091;-58
2023/03/21 07:17:19;;;;;;;12.77;2.45;;;9.70;99.90;;;;;;5001488;28;20111;-59
2023/03/21 07:19:46;;;;;;;11.85;2.50;;;9.80;99.90;;;;;;5026722;28;20076;-57
2023/03/21 07:22:13;;;;;;;7.28;1.73;;;9.80;99.90;;;;;;5021925;28;20059;-59
2023/03/21 07:24:40;;;;;;;4.93;1.58;;;9.80;99.90;;;;;;5012346;28;20056;-60
2023/03/21 07:27:07;;;;;;;4.47;1.77;;;9.80;99.90;;;;;;5023524;28;20287;-60
2023/03/21 07:29:34;;;;;;;8.48;2.88;;;9.90;99.90;;;;;;5016945;28;20145;-58
2023/03/21 07:32:01;;;;;;;6.15;2.17;;;9.90;99.90;;;;;;5014950;28;20049;-59
2023/03/21 07:34:31;;;;;;;8.13;1.77;;;10.00;99.90;;;;;;5008481;28;20046;-59
2023/03/21 07:36:59;;;;;;;6.10;2.47;;;10.00;99.90;;;;;;5021974;28;20595;-56
2023/03/21 07:39:26;;;;;;;4.45;1.60;;;10.00;99.90;;;;;;5013534;28;20054;-58
2023/03/21 07:41:56;;;;;;;5.72;1.35;;;10.00;99.90;;;;;;5015584;28;20675;-58
2023/03/21 07:44:23;;;;;;;2.85;1.30;;;10.00;99.90;;;;;;5023362;28;20079;-59
2023/03/21 07:46:49;;;;;;;5.45;1.92;;;9.90;99.90;;;;;;5019664;28;20128;-57
2023/03/21 07:49:16;;;;;;;5.72;1.70;;;9.90;99.90;;;;;;5016078;28;20049;-58
2023/03/21 07:51:43;;;;;;;8.38;2.10;;;9.90;99.90;;;;;;5015626;28;20061;-56
2023/03/21 07:54:09;;;;;;;10.77;2.83;;;9.90;99.90;;;;;;5018794;28;20122;-60
2023/03/21 07:56:36;;;;;;;5.35;2.50;;;9.90;99.90;;;;;;5021335;28;20055;-56
2023/03/21 07:59:04;;;;;;;5.38;2.28;;;9.90;99.90;;;;;;5019870;28;20148;-56
2023/03/21 08:01:31;;;;;;;9.40;1.92;;;10.00;99.90;;;;;;5010795;28;20073;-58
2023/03/21 08:03:58;;;;;;;5.43;1.73;;;10.00;99.90;;;;;;5019633;28;20038;-57
2023/03/21 08:06:26;;;;;;;7.40;1.75;;;10.00;99.90;;;;;;5011465;28;20046;-58
2023/03/21 08:08:53;;;;;;;9.88;1.73;;;10.00;99.90;;;;;;5020751;28;20807;-58
2023/03/21 08:11:21;;;;;;;4.43;1.63;;;10.00;99.90;;;;;;5011033;28;20041;-57
2023/03/21 08:13:48;;;;;;;6.90;2.90;;;10.00;99.90;;;;;;5014567;28;20052;-58
2023/03/21 08:16:15;;;;;;;6.60;1.60;;;10.00;99.90;;;;;;5025222;28;20080;-56
2023/03/21 08:18:41;;;;;;;9.75;2.65;;;10.00;99.90;;;;;;5023182;28;20092;-57
2023/03/21 08:21:08;;;;;;;18.20;2.40;;;10.00;99.90;;;;;;5011943;28;20054;-56
2023/03/21 08:23:35;;;;;;;4.57;1.85;;;10.00;99.90;;;;;;5021197;28;20136;-57
2023/03/21 08:26:02;;;;;;;5.25;1.75;;;10.10;99.90;;;;;;5011682;28;20046;-58
2023/03/21 08:28:29;;;;;;;6.30;1.90;;;10.10;99.90;;;;;;5014315;28;20048;-54
2023/03/21 08:30:55;;;;;;;10.02;2.45;;;10.10;99.90;;;;;;5022564;28;20365;-57
2023/03/21 08:33:22;;;;;;;14.90;3.67;;;10.20;99.90;;;;;;5020220;28;20056;-58
2023/03/21 08:35:49;;;;;;;6.28;2.15;;;10.20;99.90;;;;;;5015915;28;20062;-57
2023/03/21 08:38:16;;;;;;;8.23;2.35;;;10.20;99.90;;;;;;5015206;28;20469;-55
2023/03/21 08:40:43;;;;;;;11.05;3.33;;;10.20;99.90;;;;;;5018160;28;20076;-53
2023/03/21 08:43:09;;;;;;;9.43;2.50;;;10.30;99.90;;;;;;5003265;28;20042;-57
2023/03/21 08:45:39;;;;;;;5.82;2.40;;;10.40;99.90;;;;;;5017714;28;20045;-56
2023/03/21 08:48:06;;;;;;;9.07;2.45;;;10.40;99.90;;;;;;4993052;28;20041;-56
2023/03/21 08:50:32;;;;;;;12.48;2.33;;;10.40;99.90;;;;;;5016375;28;20084;-56
2023/03/21 08:52:59;;;;;;;12.50;2.40;;;10.50;99.90;;;;;;5023441;28;20502;-57
2023/03/21 08:55:26;;;;;;;10.75;2.13;;;10.50;99.90;;;;;;5019953;28;20042;-57
2023/03/21 08:57:53;;;;;;;14.88;2.63;;;10.60;99.90;;;;;;5010325;28;20053;-59
2023/03/21 09:00:20;;;;;;;11.35;2.25;;;10.60;99.90;;;;;;5019556;28;20050;-54
2023/03/21 09:02:48;;;;;;;14.98;3.03;;;10.60;99.90;;;;;;5010108;28;20115;-59
2023/03/21 09:05:15;;;;;;;11.73;2.13;;;10.70;99.90;;;;;;5022175;28;20582;-57
2023/03/21 09:07:42;;;;;;;8.68;2.83;;;10.80;99.90;;;;;;5009188;28;20104;-58
2023/03/21 09:10:12;;;;;;;7.50;2.40;;;10.90;99.90;;;;;;5013536;28;20049;-57
2023/03/21 09:12:49;;;;;;;11.20;2.17;;;11.00;99.90;;;;;;5024496;28;20511;-57
2023/03/21 09:15:19;;;;;;;15.40;1.75;;;11.20;99.90;;;;;;5020940;28;20050;-56
2023/03/21 09:17:48;;;;;;;8.32;1.70;;;11.20;99.90;;;;;;4994439;28;20485;-57
2023/03/21 09:20:20;;;;;;;8.88;1.58;;;11.20;99.90;;;;;;4997661;28;20104;-59
2023/03/21 09:22:47;;;;;;;8.45;2.03;;;11.30;99.90;;;;;;4992685;28;20050;-58
2023/03/21 09:25:15;;;;;;;15.93;2.33;;;11.70;99.90;;;;;;4991558;28;20050;-57
2023/03/21 09:27:44;;;;;;;13.85;2.15;;;11.90;99.90;;;;;;4988292;28;20054;-59
2023/03/21 09:30:16;;;;;;;6.93;1.90;;;12.10;99.90;;;;;;4994290;28;20042;-57
2023/03/21 09:32:46;;;;;;;8.73;1.52;;;12.30;99.90;;;;;;5000396;28;20053;-57
2023/03/21 09:35:15;;;;;;;13.25;2.00;;;12.40;99.90;;;;;;5000157;28;20039;-58
2023/03/21 09:37:41;;;;;;;8.70;2.00;;;12.40;99.90;;;;;;5007979;28;20045;-59
2023/03/21 09:40:15;;;;;;;12.30;3.67;;;12.30;99.90;;;;;;4999133;28;20042;-59
2023/03/21 09:42:57;;;;;;;11.10;1.70;;;12.30;99.90;;;;;;5006602;28;20069;-60
2023/03/21 09:46:00;;;;;;;7.20;2.63;;;12.30;99.90;;;;;;4994767;28;20042;-58
2023/03/21 09:48:39;;;;;;;8.27;1.67;;;12.40;99.90;;;;;;5001615;28;20068;-59
2023/03/21 09:51:22;;;;;;;13.63;1.95;;;12.40;99.90;;;;;;5000250;28;20094;-57
2023/03/21 09:53:50;;;;;;;10.68;1.60;;;12.40;99.90;;;;;;4998767;28;20077;-59
2023/03/21 09:56:17;;;;;;;7.30;1.17;;;12.40;99.90;;;;;;4993699;28;20050;-59
2023/03/21 09:58:51;;;;;;;7.55;1.45;;;12.40;99.90;;;;;;5000347;28;20049;-58
2023/03/21 10:01:34;;;;;;;8.85;2.28;;;12.40;99.90;;;;;;5002177;28;20042;-55
2023/03/21 10:04:05;;;;;;;16.42;2.97;;;12.50;99.90;;;;;;5002251;28;20064;-58
2023/03/21 10:06:38;;;;;;;8.93;1.52;;;12.60;99.90;;;;;;5003183;28;20176;-59
2023/03/21 10:09:23;;;;;;;10.15;1.80;;;12.60;99.90;;;;;;4997626;28;20078;-58
2023/03/21 10:12:13;;;;;;;7.07;1.38;;;12.50;99.90;;;;;;5002211;28;20180;-58
2023/03/21 10:14:42;;;;;;;9.90;1.45;;;12.50;99.90;;;;;;4993609;28;20414;-57
2023/03/21 10:17:24;;;;;;;8.23;1.42;;;12.60;99.90;;;;;;4996556;28;20505;-57
2023/03/21 10:20:16;;;;;;;17.58;3.83;;;12.60;99.90;;;;;;5005704;28;20093;-58
2023/03/21 10:22:44;;;;;;;5.72;1.20;;;12.70;99.90;;;;;;5003815;28;20038;-60
2023/03/21 10:25:16;;;;;;;5.28;1.48;;;12.70;99.90;;;;;;4992585;28;20105;-60
2023/03/21 10:27:43;;;;;;;5.82;1.75;;;12.70;99.90;;;;;;4995904;28;20053;-58
2023/03/21 10:30:25;;;;;;;4.60;1.40;;;12.60;99.90;;;;;;5006800;28;20524;-59
2023/03/21 10:32:52;;;;;;;5.15;0.93;;;12.50;99.90;;;;;;4995904;28;20201;-59
2023/03/21 10:35:18;;;;;;;14.38;3.22;;;12.50;99.90;;;;;;5005539;28;20054;-59
2023/03/21 10:37:45;;;;;;;3.50;0.90;;;12.50;99.90;;;;;;5003767;28;20062;-60
2023/03/21 10:40:16;;;;;;;6.07;1.20;;;12.40;99.90;;;;;;4995350;28;20107;-58
2023/03/21 10:42:43;;;;;;;4.03;0.90;;;12.40;99.90;;;;;;4998180;28;20410;-59
2023/03/21 10:45:15;;;;;;;7.20;1.10;;;12.40;99.90;;;;;;5001841;28;20121;-59
2023/03/21 10:47:42;;;;;;;5.05;1.33;;;12.40;99.90;;;;;;5002550;28;20096;-59
2023/03/21 10:50:14;;;;;;;8.02;1.73;;;12.40;99.90;;;;;;4998407;28;20182;-57
2023/03/21 10:52:50;;;;;;;7.88;1.55;;;12.50;99.90;;;;;;4996522;28;20559;-59
2023/03/21 10:55:21;;;;;;;5.93;1.23;;;12.50;99.90;;;;;;5000077;28;20133;-58
2023/03/21 10:57:51;;;;;;;6.75;1.38;;;12.50;99.90;;;;;;5001166;28;20051;-59
2023/03/21 11:00:20;;;;;;;11.85;1.48;;;12.50;99.90;;;;;;4999635;28;20075;-58
2023/03/21 11:02:48;;;;;;;6.00;1.30;;;12.50;99.90;;;;;;4997959;28;20567;-58
2023/03/21 11:05:15;;;;;;;5.57;1.13;;;12.50;99.90;;;;;;5000408;28;20046;-59
2023/03/21 11:07:45;;;;;;;15.73;1.60;;;12.50;99.90;;;;;;5007845;28;20182;-58
2023/03/21 11:10:25;;;;;;;12.38;3.97;;;12.50;99.90;;;;;;5001416;28;20060;-58
2023/03/21 11:12:55;;;;;;;4.15;1.15;;;12.60;99.90;;;;;;4995357;28;20058;-59
2023/03/21 11:15:29;;;;;;;8.35;1.30;;;12.70;99.90;;;;;;4999450;28;20152;-58
2023/03/21 11:17:57;;;;;;;;;;;12.70;99.90;;;;;;5006924;28;20046;-59
2023/03/21 11:20:23;;;;;;;8.10;2.00;;;12.80;99.90;;;;;;5005764;28;20347;-57
2023/03/21 11:22:53;;;;;;;10.35;3.05;;;13.00;99.90;;;;;;4995656;28;20042;-58
2023/03/21 11:25:26;;;;;;;7.10;1.60;;;13.10;99.90;;;;;;5004755;28;20481;-58
2023/03/21 11:27:54;;;;;;;11.05;2.33;;;13.10;99.90;;;;;;4995001;28;20045;-59
2023/03/21 11:30:23;;;;;;;10.80;1.83;;;13.30;99.90;;;;;;5004047;28;20060;-59
2023/03/21 11:32:52;;;;;;;7.65;1.70;;;13.40;99.90;;;;;;4995130;28;20129;-60
2023/03/21 11:35:21;;;;;;;6.60;1.40;;;13.50;99.90;;;;;;5003980;28;20052;-56
2023/03/21 11:37:52;;;;;;;5.88;1.15;;;13.60;99.90;;;;;;4993811;28;20045;-57
2023/03/21 11:40:35;;;;;;;6.03;1.08;;;13.70;99.90;;;;;;5023839;28;20085;-59
2023/03/21 11:43:05;;;;;;;12.65;1.25;;;13.70;99.90;;;;;;4993785;28;20050;-59
2023/03/21 11:45:34;;;;;;;9.10;1.95;;;13.80;99.90;;;;;;5006342;28;20121;-59
2023/03/21 11:48:04;;;;;;;7.72;1.48;;;13.80;99.90;;;;;;4994416;28;20056;-58
2023/03/21 11:50:34;;;;;;;8.98;1.92;;;13.80;99.90;;;;;;4997573;28;20140;-59
2023/03/21 11:53:25;;;;;;;13.10;2.38;;;13.90;99.90;;;;;;5025352;28;20084;-58
2023/03/21 11:56:01;;;;;;;8.48;2.00;;;13.80;99.90;;;;;;5007127;28;20049;-58
2023/03/21 11:58:41;;;;;;;11.18;2.17;;;13.70;99.90;;;;;;5011334;28;20475;-59
2023/03/21 12:01:19;;;;;;;8.07;1.60;;;13.70;99.90;;;;;;4981863;28;20077;-58
2023/03/21 12:04:12;;;;;;;13.85;2.75;;;13.50;99.90;;;;;;4994928;28;20053;-58
2023/03/21 12:06:53;;;;;;;7.30;1.90;;;13.50;99.90;;;;;;4998604;28;20053;-57
2023/03/21 12:09:32;;;;;;;13.32;3.17;;;13.40;99.90;;;;;;5025854;28;20045;-59
2023/03/21 12:12:20;;;;;;;7.60;1.98;;;13.30;99.90;;;;;;5020847;28;20272;-56
2023/03/21 12:15:04;;;;;;;9.57;2.15;;;13.20;99.90;;;;;;5012252;28;20085;-58
2023/03/21 12:17:36;;;;;;;7.03;2.42;;;13.20;99.90;;;;;;5017617;28;20049;-58
2023/03/21 12:20:20;;;;;;;11.18;2.70;;;13.10;99.90;;;;;;5023811;28;20056;-59
2023/03/21 12:22:50;;;;;;;4.82;1.35;;;13.10;99.90;;;;;;5004088;28;20046;-58
2023/03/21 12:25:24;;;;;;;15.90;2.65;;;13.10;99.90;;;;;;5012156;28;20073;-59
2023/03/21 12:28:06;;;;;;;9.93;2.58;;;13.20;99.90;;;;;;5002310;28;20092;-59
2023/03/21 12:30:59;;;;;;;13.15;2.65;;;13.20;99.90;;;;;;5012230;28;20705;-60
2023/03/21 12:33:32;;;;;;;8.38;1.75;;;13.30;99.90;;;;;;5017043;28;20049;-58
2023/03/21 12:36:23;;;;;;;7.65;2.05;;;13.40;99.90;;;;;;5020829;28;20037;-59
2023/03/21 12:38:53;;;;;;;11.23;2.35;;;13.50;99.90;;;;;;5020114;28;20085;-59
2023/03/21 12:41:34;;;;;;;8.57;1.77;;;13.50;99.90;;;;;;5019792;28;20045;-59
2023/03/21 12:44:19;;;;;;;8.68;1.55;;;13.50;99.90;;;;;;4983163;28;20092;-58
2023/03/21 12:47:15;;;;;;;7.07;2.60;;;13.50;99.90;;;;;;5014842;28;20205;-59
2023/03/21 12:49:46;;;;;;;7.82;1.58;;;13.50;99.90;;;;;;5000848;28;20049;-61
2023/03/21 12:52:28;;;;;;;16.00;2.08;;;13.30;99.90;;;;;;5003033;28;20499;-59
2023/03/21 12:55:03;;;;;;;14.98;3.80;;;13.40;99.90;;;;;;4994384;28;20245;-58
2023/03/21 12:57:38;;;;;;;19.80;2.45;;;13.30;99.90;;;;;;4996613;28;20087;-59
2023/03/21 13:00:19;;;;;;;5.43;1.58;;;13.30;99.90;;;;;;5007980;28;20053;-59
2023/03/21 13:02:56;;;;;;;14.20;2.42;;;13.30;99.90;;;;;;5002786;28;20148;-59
2023/03/21 13:05:37;;;;;;;7.30;1.55;;;13.40;99.90;;;;;;4994444;28;20042;-59